Curacao, Curacao

8:11 PM AST on September 29, 2016 (GMT -0400)
Sabana Craz | | Change Station

Elev 39 ft 12.10 °N, 68.84 °W | Updated 33 seconds ago

Clear
Clear
78.3 °F
Feels Like 81 °F
N
0.0
Wind Variable Wind from NNW

Today
High -- | Low -- °F
--% Chance of Precip.
Yesterday
High -- | Low -- °F
Precip. -- in
Pressure 29.74 in
Visibility 6.2 miles
Clouds
Heat Index 81 °F
Dew Point 77 °F
Humidity 98%
Rainfall 1.84 in
Snow Depth Not available.
6:24 AM 6:26 PM
Waning Crescent, 1% visible
METAR TNCB 292355Z AUTO 28008KT 9999 NSC 27/24 Q1007
Pressure 29.74 in
Visibility 6.2 miles
Clouds
Heat Index 81 °F
Dew Point 77 °F
Humidity 98%
Rainfall 1.84 in
Snow Depth Not available.
6:24 AM 6:26 PM
Waning Crescent, 1% visible
METAR TNCB 292355Z AUTO 28008KT 9999 NSC 27/24 Q1007

10-Day Weather Forecast

No radar image for this location.
×

Almanac

Astronomy

Sep. 29, 2016 Rise Set
Actual Time
Civil Twilight
Nautical Twilight
Astronomical Twilight
Moon
Length of Visible Light
Length of Day
Tomorrow will be .
, % of the Moon is Illuminated

Today's Extremes

Country Highs Country Lows

Community

WunderPhotos

Upload Photos

1,942,602 photos uploaded!

WunderBlog® & News

Nearby

Air Quality

  Air Quality AQ Index Pollutant
Not available.

Snow Depth

Station Depth Elevation

Earthquake Activity

City Distance Mag. Time & Date
Minimum magnitude displayed is 2.5.

Coastal Water Temperatures

Place Temperature

Stations

Nearby Weather Stations

Station Location Temp. Windchill Dew Point Humidity Wind Precip. Elev Updated Type